• Join FlightAware (Why Join?)
  • Login
  • US Flag 
07:03PM EDT


 

Airport Tracker/Info


-or-


 

Live Flight TrackerFlight Track Log ✈ ZS-SNC ✈ 20-Apr-2013 ✈ FAOR / JNB - FACT / CPT

Flight Track Log - Related Links

Times and Time Zones

All times are in EDT time to prevent confusion due to time zone crossing. See the ZS-SNC flight status page for this flight to view local times or setup timezone preferences in your user account.

Time Position Orientation Groundspeed Altitude Reporting Facility
EDT Latitude Longitude Course Direction KTS MPH feet Rate Location/Type
06:20AM -26.1100 28.2460 17° North 149 171 6,100  Level FlightAware
06:20AM -26.0970 28.2500 15° North 147 169 6,700 1,500 Climbing FlightAware
06:21AM -26.0860 28.2410 324° Northwest 160 184 7,100 1,200 Climbing FlightAware
06:21AM -26.0850 28.2350 281° West 169 194 7,300 780 Climbing FlightAware
06:21AM -26.0930 28.2160 245° Southwest 200 230 7,500 900 Climbing FlightAware
06:22AM -26.1080 28.1910 236° Southwest 238 274 8,000 1,260 Climbing FlightAware
06:22AM -26.1280 28.1550 238° Southwest 284 327 8,700 1,860 Climbing FlightAware
06:22AM -26.1380 28.1370 238° Southwest 284 327 9,400 2,400 Climbing FlightAware
06:23AM -26.1670 28.0850 238° Southwest 306 352 10,900 1,560 Climbing FlightAware
06:24AM -26.2030 28.0300 234° Southwest 361 415 11,500 2,220 Climbing FlightAware
06:24AM -26.2540 27.9690 227° Southwest 353 406 14,100 2,820 Climbing FlightAware
06:25AM -26.3010 27.9150 226° Southwest 372 428 15,500 2,820 Climbing FlightAware
06:26AM -26.3520 27.8560 226° Southwest 355 409 18,100 2,700 Climbing FlightAware
06:27AM -26.3990 27.8000 227° Southwest 366 421 19,400 1,560 Climbing FlightAware
06:27AM -26.4480 27.7420 227° Southwest 392 451 20,200 1,380 Climbing FlightAware
06:28AM -26.5060 27.6740 226° Southwest 408 470 21,400 1,380 Climbing FlightAware
06:29AM -26.5600 27.6100 227° Southwest 430 495 22,200 1,500 Climbing FlightAware
06:29AM -26.6080 27.5530 227° Southwest 445 512 23,300 1,440 Climbing FlightAware
06:30AM -26.6850 27.4620 227° Southwest 471 542 24,300 1,200 Climbing FlightAware
06:31AM -26.7520 27.3830 226° Southwest 492 566 25,200 1,320 Climbing FlightAware
06:31AM -26.8150 27.3070 227° Southwest 506 582 26,200 1,380 Climbing FlightAware
06:32AM -26.8910 27.2170 227° Southwest 524 603 27,200 1,620 Climbing FlightAware
06:33AM -26.9580 27.1360 227° Southwest 532 612 28,500 1,800 Climbing FlightAware
06:34AM -27.0260 27.0550 227° Southwest 543 625 29,600 1,860 Climbing FlightAware
06:34AM -27.1010 26.9650 227° Southwest 546 628 31,200 2,400 Climbing FlightAware
06:35AM -27.1710 26.8810 227° Southwest 537 618 33,000 3,120 Climbing FlightAware
06:36AM -27.2370 26.8020 227° Southwest 510 587 35,400 3,660 Climbing FlightAware
06:36AM -27.2910 26.7370 227° Southwest 478 550 37,600 2,280 Climbing FlightAware
06:37AM -27.3580 26.6560 227° Southwest 478 550 38,500 1,080 Climbing FlightAware
06:38AM -27.4190 26.5810 227° Southwest 479 551 39,200 1,080 Climbing FlightAware
06:38AM -27.4780 26.5090 227° Southwest 476 548 40,000 540 Climbing FlightAware
06:39AM -27.5480 26.4250 227° Southwest 489 563 40,000  Level FlightAware
06:40AM -27.6090 26.3500 227° Southwest 479 551 40,000  Level FlightAware
06:40AM -27.6750 26.2690 227° Southwest 473 544 40,000  Level FlightAware
06:41AM -27.7340 26.1980 227° Southwest 474 545 40,000  Level FlightAware
06:42AM -27.7940 26.1240 227° Southwest 481 554 40,000  Level FlightAware
06:43AM -27.8640 26.0380 227° Southwest 486 559 40,000  Level FlightAware
06:43AM -27.9240 25.9650 227° Southwest 484 557 40,000  Level FlightAware
06:44AM -27.9910 25.8820 228° Southwest 484 557 40,000  Level FlightAware
06:45AM -28.0530 25.8080 226° Southwest 485 558 40,000  Level FlightAware
06:46AM -28.1340 25.7180 224° Southwest 485 558 40,000  Level FlightAware
06:46AM -28.1890 25.6580 224° Southwest 485 558 40,000  Level FlightAware
06:47AM -28.2440 25.5980 224° Southwest 485 558 40,000  Level FlightAware
06:48AM -28.2990 25.5370 224° Southwest 485 558 40,000  Level FlightAware
06:48AM -28.3540 25.4770 224° Southwest 485 558 40,000  Level FlightAware
06:49AM -28.4230 25.4020 224° Southwest 485 558 40,000  Level FlightAware
06:50AM -28.4770 25.3420 224° Southwest 485 558 40,000  Level FlightAware
06:50AM -28.5320 25.2810 224° Southwest 485 558 40,000  Level FlightAware
06:51AM -28.5870 25.2210 224° Southwest 485 558 40,000  Level FlightAware
06:52AM -28.6560 25.1460 224° Southwest 485 558 40,000  Level FlightAware
06:53AM -28.7110 25.0850 224° Southwest 485 558 40,000  Level FlightAware
06:53AM -28.8610 24.8830 230° Southwest 481 554 40,000  Level FlightAware
06:54AM -28.9420 24.7900 225° Southwest 481 554 40,000  Level FlightAware
06:55AM -29.0190 24.7000 226° Southwest 483 556 40,000  Level FlightAware
06:56AM -29.0860 24.6240 225° Southwest 483 556 40,000  Level FlightAware
06:57AM -29.1400 24.5620 225° Southwest 483 556 40,000  Level FlightAware
06:57AM -29.2240 24.4600 227° Southwest 40,000  Level FlightAware
06:58AM -29.2940 24.3780 226° Southwest 473 544 40,000  Level FlightAware
06:59AM -29.3620 24.2990 225° Southwest 473 544 40,000  Level FlightAware
06:59AM -29.4190 24.2310 226° Southwest 471 542 40,000  Level FlightAware
07:00AM -29.4940 24.1430 226° Southwest 473 544 40,000  Level FlightAware
07:01AM -29.5560 24.0700 226° Southwest 472 543 40,000  Level FlightAware
07:02AM -29.6370 23.9730 226° Southwest 467 537 40,000  Level FlightAware
07:02AM -29.7100 23.8870 226° Southwest 467 537 40,000  Level FlightAware
07:03AM -29.7700 23.8150 226° Southwest 468 539 40,000  Level FlightAware
07:04AM -29.8230 23.7520 226° Southwest 464 534 40,000  Level FlightAware
07:04AM -29.8970 23.6630 226° Southwest 461 531 40,000  Level FlightAware
07:06AM -30.0020 23.5380 226° Southwest 468 539 40,000  Level FlightAware
07:07AM -30.1070 23.4110 226° Southwest 464 534 40,000  Level FlightAware
07:08AM -30.2090 23.2880 226° Southwest 451 519 40,000  Level FlightAware
07:09AM -30.3250 23.1480 226° Southwest 445 512 40,000  Level FlightAware
07:11AM -30.4330 23.0170 226° Southwest 444 511 40,000  Level FlightAware
07:12AM -30.5830 22.8340 226° Southwest 443 510 40,000  Level FlightAware
07:14AM -30.6810 22.7140 226° Southwest 433 498 40,000  Level FlightAware
07:14AM -30.7260 22.6570 227° Southwest 433 498 40,000  Level FlightAware
07:15AM -30.8010 22.5670 226° Southwest 446 513 40,000  Level FlightAware
07:16AM -30.8780 22.4720 227° Southwest 447 514 40,000  Level FlightAware
07:17AM -30.9270 22.4130 226° Southwest 447 514 40,000  Level FlightAware
07:17AM -30.9760 22.3540 226° Southwest 447 514 40,000  Level FlightAware
07:18AM -31.0250 22.2950 226° Southwest 447 514 40,000  Level FlightAware
07:19AM -31.1490 22.1350 228° Southwest 437 503 40,000  Level FlightAware
07:20AM -31.2180 22.0480 227° Southwest 445 512 40,000  Level FlightAware
07:21AM -31.2970 21.9490 227° Southwest 436 502 40,000  Level FlightAware
07:21AM -31.3370 21.8980 227° Southwest 434 499 40,000  Level FlightAware
07:23AM -31.4480 21.7580 227° Southwest 432 497 40,000  Level FlightAware
07:23AM -31.5050 21.6870 227° Southwest 431 496 40,000  Level FlightAware
07:24AM -31.5770 21.5960 227° Southwest 431 496 40,000  Level FlightAware
07:25AM -31.6330 21.5250 227° Southwest 431 496 40,000  Level FlightAware
07:26AM -31.6980 21.4400 228° Southwest 429 494 40,000  Level FlightAware
07:26AM -31.7520 21.3710 227° Southwest 430 495 40,000  Level FlightAware
07:27AM -31.7990 21.3110 227° Southwest 431 496 40,000  Level FlightAware
07:28AM -31.8570 21.2350 228° Southwest 420 483 40,000  Level FlightAware
07:28AM -31.8980 21.1820 228° Southwest 420 483 40,000  Level FlightAware
07:29AM -31.9860 21.0660 228° Southwest 420 483 40,000  Level FlightAware
07:30AM -32.0310 21.0080 228° Southwest 420 483 40,000  Level FlightAware
07:31AM -32.0750 20.9500 228° Southwest 420 483 40,000  Level FlightAware
07:32AM -32.1300 20.8780 228° Southwest 420 483 40,000  Level FlightAware
07:32AM -32.1740 20.8200 228° Southwest 420 483 40,000  Level FlightAware
07:33AM -32.2190 20.7620 227° Southwest 420 483 40,000  Level FlightAware
07:34AM -32.2630 20.7040 228° Southwest 420 483 40,000  Level FlightAware
07:34AM -32.3070 20.6460 228° Southwest 420 483 40,000  Level FlightAware
07:35AM -32.3620 20.5730 228° Southwest 420 483 40,000  Level FlightAware
07:36AM -32.4060 20.5150 228° Southwest 420 483 40,000  Level FlightAware
07:36AM -32.4510 20.4570 227° Southwest 420 483 40,000  Level FlightAware
07:37AM -32.4950 20.3990 228° Southwest 420 483 40,000  Level FlightAware
07:38AM -32.5390 20.3400 228° Southwest 420 483 40,000 -4,140 Level FlightAware
07:38AM -32.6870 20.1420 228° Southwest 32,800 -5,940 Descending FlightAware
07:39AM -32.7510 20.0560 228° Southwest 421 484 31,100 -2,100 Descending FlightAware
07:40AM -32.8070 19.9810 228° Southwest 417 480 29,700 -2,220 Descending FlightAware
07:41AM -32.8680 19.9000 228° Southwest 420 483 28,000 -2,160 Descending FlightAware
07:41AM -32.9170 19.8340 229° Southwest 404 465 26,700 -1,800 Descending FlightAware
07:42AM -32.9720 19.7590 229° Southwest 399 459 25,300 -1,860 Descending FlightAware
07:43AM -33.0480 19.6570 228° Southwest 389 448 23,300 -1,920 Descending FlightAware
07:44AM -33.1040 19.5810 229° Southwest 372 428 21,800 -1,860 Descending FlightAware
07:45AM -33.1680 19.4930 229° Southwest 369 425 20,100 -2,220 Descending FlightAware
07:47AM -33.3108 19.3350 223° Southwest  Level Estimated
07:48AM -33.3981 19.2380 223° Southwest  Level Estimated
07:49AM -33.4854 19.1408 223° Southwest  Level Estimated
07:49AM -33.4590 19.0950 223° Southwest 357 411 10,600  Level FlightAware
07:50AM -33.5400 18.9830 229° Southwest 301 346 9,700 -720 Descending FlightAware
07:51AM -33.5630 18.9520 228° Southwest 293 337 9,400 -1,440 Descending FlightAware
07:51AM -33.5900 18.9150 229° Southwest 300 345 8,400 -2,340 Descending FlightAware
07:52AM -33.6180 18.8760 229° Southwest 309 356 7,100 -2,640 Descending FlightAware
07:52AM -33.6430 18.8420 229° Southwest 320 368 6,000 -2,100 Descending FlightAware
07:53AM -33.6560 18.8190 236° Southwest 320 368 5,700 -1,380 Descending FlightAware
07:53AM -33.6800 18.7750 237° Southwest 309 356 5,000 -1,500 Descending FlightAware
07:53AM -33.6870 18.7620 237° Southwest 310 357 4,700 -1,380 Descending FlightAware
07:54AM -33.7110 18.7170 237° Southwest 299 344 4,100 -1,080 Descending FlightAware
07:54AM -33.7230 18.6960 236° Southwest 293 337 3,900 -780 Descending FlightAware
07:54AM -33.7400 18.6640 237° Southwest 274 315 3,600 -600 Descending FlightAware
07:55AM -33.7510 18.6450 235° Southwest 271 312 3,500 -540 Descending FlightAware
07:55AM -33.7720 18.6070 236° Southwest 248 285 3,200 -540 Descending FlightAware
07:56AM -33.8030 18.5690 226° Southwest 222 255 2,900 -420 Descending FlightAware
07:56AM -33.8260 18.5590 200° South 196 226 2,800 -540 Descending FlightAware
07:57AM -33.8420 18.5630 168° South 185 213 2,500 -1,080 Descending FlightAware
07:57AM -33.8630 18.5690 167° South 171 197 2,000 -1,140 Descending FlightAware
07:57AM -33.8870 18.5770 165° South 155 178 1,500 -900 Descending FlightAware
07:58AM -33.9040 18.5820 166° South 150 173 1,200 -780 Descending FlightAware
07:58AM -33.9230 18.5880 165° South 132 152 800 -840 Descending FlightAware
07:59AM -33.9400 18.5940 164° South 131 151 400 -480 Descending FlightAware
07:59AM -33.9530 18.5980 166° South 131 151 400  Level FlightAware
08:02AM -33.9648 18.6017 166° South  Level Estimated
08:03AM -33.9648 18.6017 328° Northwest  Level Estimated
08:04AM -33.9648 18.6017 328° Northwest  Level Estimated
08:05AM -33.9648 18.6017 328° Northwest  Level Estimated
08:06AM -33.9648 18.6017 328° Northwest  Level Estimated
08:07AM -33.9648 18.6017 328° Northwest  Level Estimated
08:08AM -33.9648 18.6017 328° Northwest  Level Estimated